Argusville, ND

12:59 AM CST on February 01, 2015 (GMT -0600)
Harwood, ND | Change Station
CLOSE
Current Station
Personal Weather Station
Location: Harwood, ND
Elevation: 879 ft
Nearby Weather Stations
Active Advisory: Wind Chill Advisory

Elev 879 ft 46.98 °N, 96.88 °W | Updated 14 minutes ago

Overcast
Overcast
-4.3 °F
Feels Like -4 °F
N
3.0
Wind Variable Wind from NE
Gusts 11.0 mph

Today
High -- | Low -- °F
--% Chance of Precip.
Yesterday
High -- | Low -- °F
Precip. -- in
7:53 AM 5:29 PM
Waxing Gibbous, 93% visible
Pressure 30.52 in
Visibility 10.0 miles
Clouds Overcast 10000 ft
Windchill -4 °F
Dew Point -11 °F
Humidity 71%
Rainfall 0.00 in
Snow Depth Not available.
UV 0 out of 12
Pollen .10 out of 12
Air Quality Not available.
Flu Activity Not available.
METAR KFAR 010653Z 36017KT 10SM OVC100 M19/M24 A3044 RMK AO2 SLP334 T11891239

More Conditions Fewer Conditions

Pressure 30.52 in
Visibility 10.0 miles
Clouds Overcast 10000 ft
Windchill -4 °F
Dew Point -11 °F
Humidity 71%
Rainfall 0.00 in
Snow Depth Not available.
UV 0 out of 12
Pollen .10 out of 12
Air Quality Not available.
Flu Activity Not available.
METAR KFAR 010653Z 36017KT 10SM OVC100 M19/M24 A3044 RMK AO2 SLP334 T11891239

More Conditions Fewer Conditions

10-Day Weather Forecast

Almanac

Astronomy

Feb. 01, 2015 Rise Set
Actual Time
Civil Twilight
Nautical Twilight
Astronomical Twilight
Moon
Length of Visible Light
Length of Day
Tomorrow will be .
, % of the Moon is Illuminated

Today's Extremes

State Highs State Lows

Community

WunderPhotos

Upload Photos

1,792,324 photos uploaded!

WunderBlogs® & News

Nearby

Air Quality

  Air Quality AQ Index Pollutant
Not available.

Snow Depth

Station Depth Elevation

Earthquake Activity

City Distance Mag. Time & Date
Minimum magnitude displayed is 2.5.

Coastal Water Temperatures

Place Temperature

Nearby Weather Stations